Flight Track Log - Related Links

Times and Time Zones

All times are in EDT time to prevent confusion due to time zone crossing. See the SWA580 flight status page for this flight to view local times or setup timezone preferences in your user account.

Time Position Orientation Groundspeed Altitude Reporting Facility
EDT Latitude Longitude Course Direction KTS MPH feet Rate Location/Type
Tue 05:19:03 PM 38.7594 -90.3442 62° Northeast 166 191 2,500  Level FAA TRACON SMA TRACON (SMA)
Tue 05:19:22 PM 38.7692 -90.3683 297° West 196 226 3,800 4,000 Climbing FAA TRACON SMA TRACON (SMA)
Tue 05:19:42 PM 38.7681 -90.3903 266° West 210 242 5,100 3,366 Climbing FAA TRACON SMA TRACON (SMA)
Tue 05:20:03 PM 38.7550 -90.4064 224° Southwest 218 251 6,100 3,805 Climbing FAA TRACON SMA TRACON (SMA)
Tue 05:20:23 PM 38.7339 -90.4225 211° Southwest 231 266 7,700 4,350 Climbing FAA TRACON SMA TRACON (SMA)
Tue 05:20:43 PM 38.7156 -90.4342 206° Southwest 238 274 9,000 3,846 Climbing FAA TRACON SMA TRACON (SMA)
Tue 05:21:02 PM 38.6958 -90.4453 204° Southwest 246 283 10,200 3,000 Climbing FAA TRACON SMA TRACON (SMA)
Tue 05:21:23 PM 38.6694 -90.4594 203° Southwest 264 304 11,000 2,634 Climbing FAA TRACON SMA TRACON (SMA)
Tue 05:21:43 PM 38.6458 -90.4725 203° Southwest 291 335 12,000 4,050 Climbing FAA TRACON SMA TRACON (SMA)
Tue 05:22:03 PM 38.6147 -90.4881 201° Southwest 311 358 13,700 4,769 Climbing FAA TRACON SMA TRACON (SMA)
Tue 05:22:22 PM 38.5897 -90.5000 200° South 314 361 15,100 3,846 Climbing FAA TRACON SMA TRACON (SMA)
Tue 05:22:42 PM 38.5650 -90.5133 203° Southwest 313 360 16,200 3,659 Climbing FAA TRACON SMA TRACON (SMA)
Tue 05:23:03 PM 38.5333 -90.5297 202° Southwest 317 365 17,600 3,659 Climbing FAA TRACON SMA TRACON (SMA)
Tue 05:23:23 PM 38.5075 -90.5433 202° Southwest 326 375 18,700 3,077 Climbing FAA TRACON SMA TRACON (SMA)
Tue 05:23:42 PM 38.4808 -90.5572 202° Southwest 334 384 19,600 2,769 Climbing FAA TRACON SMA TRACON (SMA)
Tue 05:24:02 PM 38.4536 -90.5722 203° Southwest 342 394 20,500 2,780 Climbing FAA TRACON SMA TRACON (SMA)
Tue 05:24:23 PM 38.4183 -90.5911 203° Southwest 355 409 21,500 2,927 Climbing FAA TRACON SMA TRACON (SMA)
Tue 05:24:43 PM 38.3892 -90.6056 201° Southwest 363 418 22,500 3,150 Climbing FAA TRACON SMA TRACON (SMA)
Tue 05:25:03 PM 38.3528 -90.6258 204° Southwest 370 426 23,600 2,791 Climbing FAA TRACON SMA TRACON (SMA)
Tue 05:25:26 PM 38.3228 -90.6408 201° Southwest 376 433 24,500 2,791 Climbing FAA TRACON SMA TRACON (SMA)
Tue 05:25:46 PM 38.2844 -90.6600 201° Southwest 381 438 25,600 2,833 Climbing FAA TRACON SMA TRACON (SMA)
Tue 05:26:02 PM 38.2622 -90.6728 204° Southwest 383 441 26,200 2,833 Climbing FAA TRACON SMA TRACON (SMA)
Tue 05:26:22 PM 38.2244 -90.6936 203° Southwest 384 442 27,300 2,780 Climbing FAA TRACON SMA TRACON (SMA)
Tue 05:26:43 PM 38.1942 -90.7100 203° Southwest 385 443 28,100 2,488 Climbing FAA TRACON SMA TRACON (SMA)
Tue 05:27:03 PM 38.1550 -90.7286 200° South 388 447 29,000 2,250 Climbing FAA TRACON SMA TRACON (SMA)
Tue 05:27:23 PM 38.1231 -90.7436 200° South 394 453 29,600 1,800 Climbing FAA TRACON SMA TRACON (SMA)
Tue 05:27:43 PM 38.0897 -90.7556 196° South 401 461 30,200 1,846 Climbing FAA TRACON SMA TRACON (SMA)
Tue 05:28:02 PM 38.0567 -90.7697 199° South 405 466 30,800 2,154 Climbing FAA TRACON SMA TRACON (SMA)
Tue 05:28:22 PM 38.0147 -90.7869 198° South 410 472 31,600 2,195 Climbing FAA TRACON SMA TRACON (SMA)
Tue 05:28:43 PM 37.9814 -90.8000 197° South 410 472 32,300 2,341 Climbing FAA TRACON SMA TRACON (SMA)
Tue 05:29:03 PM 37.9389 -90.8158 196° South 411 473 33,200 2,308 Climbing FAA TRACON SMA TRACON (SMA)
Tue 05:29:22 PM 37.9053 -90.8294 198° South 412 474 33,800 1,846 Climbing FAA TRACON SMA TRACON (SMA)
Tue 05:29:42 PM 37.8719 -90.8447 200° South 411 473 34,400 1,756 Climbing FAA TRACON SMA TRACON (SMA)
Tue 05:30:03 PM 37.8386 -90.8594 199° South 412 474 35,000 1,833 Climbing FAA TRACON SMA TRACON (SMA)
Tue 05:30:54 PM 37.7594 -90.9425 220° Southwest 411 473 36,600 1,768 Climbing Kansas City Center
Tue 05:31:55 PM 37.6514 -90.9850 197° South 409 471 38,300 1,475 Climbing Kansas City Center
Tue 05:32:56 PM 37.5400 -91.0281 197° South 408 470 39,600 843 Climbing Kansas City Center
Tue 05:33:56 PM 37.4319 -91.0753 199° South 407 468 40,000 194 Climbing Kansas City Center
Tue 05:35:00 PM 37.3219 -91.1208 198° South 411 473 40,000  Level Kansas City Center
Tue 05:36:02 PM 37.2111 -91.1664 198° South 415 478 40,000  Level Kansas City Center
Tue 05:36:58 PM 37.1000 -91.2125 198° South 427 491 40,000  Level Memphis Center
Tue 05:37:58 PM 36.9911 -91.2581 198° South 427 491 40,000  Level Memphis Center
Tue 05:38:58 PM 36.8825 -91.3036 199° South 427 491 40,000  Level Memphis Center
Tue 05:39:58 PM 36.7739 -91.3464 198° South 422 486 40,000  Level Memphis Center
Tue 05:40:58 PM 36.6650 -91.3917 198° South 422 486 40,000  Level Memphis Center
Tue 05:41:58 PM 36.5583 -91.4394 200° South 417 480 40,000  Level Memphis Center
Tue 05:42:58 PM 36.4328 -91.4867 197° South 423 487 40,000  Level Memphis Center
Tue 05:43:58 PM 36.3242 -91.5317 198° South 423 487 40,000  Level Memphis Center
Tue 05:44:58 PM 36.2153 -91.5764 198° South 423 487 40,000  Level Memphis Center
Tue 05:45:58 PM 36.1044 -91.6183 197° South 423 487 40,000  Level Memphis Center
Tue 05:46:58 PM 35.9997 -91.6603 198° South 423 487 40,000  Level Memphis Center
Tue 05:47:58 PM 35.8950 -91.7022 198° South 423 487 40,000  Level Memphis Center
Tue 05:48:58 PM 35.7861 -91.7467 198° South 417 480 40,000  Level Memphis Center
Tue 05:49:58 PM 35.6750 -91.7806 194° South 412 474 40,000  Level Memphis Center
Tue 05:50:58 PM 35.5600 -91.8092 191° South 412 474 40,000  Level Memphis Center
Tue 05:51:58 PM 35.4472 -91.8378 192° South 417 480 40,000  Level Memphis Center
Tue 05:52:58 PM 35.3342 -91.8664 192° South 417 480 40,000  Level Memphis Center
Tue 05:53:58 PM 35.2192 -91.8947 191° South 417 480 40,000  Level Memphis Center
Tue 05:54:58 PM 35.1019 -91.9231 191° South 422 486 40,000  Level Memphis Center
Tue 05:55:58 PM 34.9889 -91.9514 192° South 422 486 40,000  Level Memphis Center
Tue 05:56:58 PM 34.8717 -91.9797 191° South 422 486 40,000  Level Memphis Center
Tue 05:57:58 PM 34.7567 -92.0078 191° South 428 493 40,000  Level Memphis Center
Tue 05:58:58 PM 34.6372 -92.0408 193° South 434 499 40,000  Level Memphis Center
Tue 05:59:58 PM 34.5178 -92.0686 191° South 434 499 40,000  Level Memphis Center
Tue 06:00:58 PM 34.4047 -92.0967 192° South 434 499 40,000  Level Memphis Center
Tue 06:01:58 PM 34.2897 -92.1244 191° South 434 499 40,000  Level Memphis Center
Tue 06:02:58 PM 34.1725 -92.1522 191° South 434 499 40,000  Level Memphis Center
Tue 06:03:58 PM 34.0614 -92.1850 194° South 427 491 40,000  Level Memphis Center
Tue 06:04:58 PM 33.9483 -92.2125 191° South 421 484 40,000  Level Memphis Center
Tue 06:06:19 PM 33.7958 -92.2475 191° South 427 491 40,000  Level Fort Worth Center
Tue 06:07:19 PM 33.6944 -92.2708 191° South 427 491 40,000  Level Fort Worth Center
Tue 06:08:19 PM 33.5808 -92.2975 191° South 421 484 40,000  Level Fort Worth Center
Tue 06:09:19 PM 33.4714 -92.3264 192° South 421 484 40,000  Level Fort Worth Center
Tue 06:10:19 PM 33.3597 -92.3500 190° South 416 479 40,000  Level Fort Worth Center
Tue 06:11:19 PM 33.2461 -92.3789 192° South 416 479 40,000  Level Fort Worth Center
Tue 06:12:19 PM 33.1364 -92.4025 190° South 411 473 40,000  Level Fort Worth Center
Tue 06:13:19 PM 33.0247 -92.4311 192° South 411 473 40,000  Level Fort Worth Center
Tue 06:14:19 PM 32.9111 -92.4547 190° South 411 473 40,000  Level Fort Worth Center
Tue 06:15:19 PM 32.8014 -92.4831 192° South 411 473 40,000  Level Fort Worth Center
Tue 06:17:22 PM 32.5719 -92.5367 191° South 412 474 40,000  Level Houston Center
Tue 06:18:25 PM 32.4603 -92.5639 192° South 412 474 40,000  Level Houston Center
Tue 06:19:27 PM 32.3244 -92.5939 191° South 415 478 40,000  Level Houston Center
Tue 06:20:29 PM 32.2139 -92.6214 192° South 411 473 40,000  Level Houston Center
Tue 06:21:31 PM 32.1036 -92.6478 191° South 407 468 40,000  Level Houston Center
Tue 06:22:33 PM 31.9917 -92.6722 190° South 409 471 40,000  Level Houston Center
Tue 06:23:35 PM 31.9147 -92.7497 221° Southwest 378 435 40,000  Level Houston Center
Tue 06:24:37 PM 31.8447 -92.8342 226° Southwest 366 421 40,000  Level Houston Center
Tue 06:25:40 PM 31.7644 -92.9406 228° Southwest 364 419 40,000  Level Houston Center
Tue 06:26:42 PM 31.6978 -93.0286 228° Southwest 362 417 40,000  Level Houston Center
Tue 06:27:44 PM 31.6294 -93.1144 227° Southwest 362 417 40,000  Level Houston Center
Tue 06:28:46 PM 31.5597 -93.2014 227° Southwest 366 421 40,000  Level Houston Center
Tue 06:29:48 PM 31.4897 -93.2903 227° Southwest 364 419 40,000  Level Houston Center
Tue 06:30:50 PM 31.4078 -93.3939 227° Southwest 365 420 40,000  Level Houston Center
Tue 06:31:52 PM 31.3394 -93.4789 227° Southwest 362 417 40,000  Level Houston Center
Tue 06:32:55 PM 31.2714 -93.5653 227° Southwest 363 418 40,000  Level Houston Center
Tue 06:33:57 PM 31.2044 -93.6472 226° Southwest 361 415 40,000  Level Houston Center
Tue 06:34:59 PM 31.1364 -93.7328 227° Southwest 362 417 40,000  Level Houston Center
Tue 06:36:01 PM 31.0556 -93.8333 227° Southwest 358 412 40,000 -677 Level Houston Center
Tue 06:37:03 PM 30.9872 -93.9167 226° Southwest 357 411 38,600 -1,935 Descending Houston Center
Tue 06:38:05 PM 30.9206 -94.0000 227° Southwest 354 407 36,000 -2,806 Descending Houston Center
Tue 06:39:07 PM 30.8519 -94.0833 226° Southwest 358 412 32,800 -2,758 Descending Houston Center
Tue 06:40:09 PM 30.7808 -94.1700 226° Southwest 368 423 30,300 -2,640 Descending Houston Center
Tue 06:41:12 PM 30.6944 -94.2753 226° Southwest 377 434 27,300 -2,706 Descending Houston Center
Tue 06:41:51 PM 30.6450 -94.3347 226° Southwest 373 429 25,700 -2,323 Descending Houston Center
Tue 06:42:14 PM 30.6236 -94.3608 226° Southwest 372 428 24,900 -2,351 Descending Houston Center
Tue 06:43:05 PM 30.5644 -94.4328 226° Southwest 365 420 22,800 -2,336 Descending Houston Center
Tue 06:44:07 PM 30.4911 -94.5225 227° Southwest 351 404 20,500 -2,244 Descending Houston Center
Tue 06:45:08 PM 30.4347 -94.6122 234° Southwest 348 400 18,200 -2,293 Descending Houston Center
Tue 06:46:10 PM 30.3761 -94.7022 233° Southwest 344 396 15,800 -2,439 Descending Houston Center
Tue 06:47:11 PM 30.3158 -94.7947 233° Southwest 337 388 13,200 -1,623 Descending Houston Center
Tue 06:48:12 PM 30.2628 -94.8789 234° Southwest 324 373 12,500 -829 Descending Houston Center
Tue 06:49:14 PM 30.2097 -94.9606 233° Southwest 318 366 11,500 -857 Descending Houston Center
Tue 06:49:29 PM 30.2044 -94.9675 229° Southwest 324 373 11,400 -545 Descending Houston Center
Tue 06:50:09 PM 30.1600 -95.0344 232° Southwest 318 366 11,000 -387 Descending Houston Center
Tue 06:50:31 PM 30.1428 -95.0622 234° Southwest 314 361 11,000 -537 Level Houston Center
Tue 06:51:16 PM 30.0814 -95.0947 205° Southwest 307 353 10,400 -774 Descending Houston Center
Tue 06:51:33 PM 30.0664 -95.1014 201° Southwest 307 353 10,200 -387 Descending Houston Center
Tue 06:52:18 PM 30.0028 -95.1286 200° South 285 328 10,000 -194 Descending Houston Center
Tue 06:52:35 PM 29.9883 -95.1344 199° South 299 344 10,000  Level Houston Center
Tue 06:53:19 PM 29.9300 -95.1594 200° South 276 318 10,000  Level Houston Center
Tue 06:53:37 PM 29.9181 -95.1647 201° Southwest 273 314 10,000 -194 Level Houston Center
Tue 06:54:21 PM 29.8636 -95.1892 201° Southwest 230 265 9,800 -387 Descending Houston Center
Tue 06:54:39 PM 29.8556 -95.1917 195° South 244 281 9,600 -985 Descending Houston Center
Tue 06:55:28 PM 29.7967 -95.2167 200° South 227 261 8,700 -1,086 Descending Houston Center
Tue 06:56:24 PM 29.7442 -95.2397 201° Southwest 221 254 7,700 -1,040 Descending Houston Center
Tue 06:56:43 PM 29.7294 -95.2486 208° Southwest 220 253 7,400 -1,082 Descending Houston Center
Tue 06:57:25 PM 29.6981 -95.2864 226° Southwest 201 231 6,600 -1,048 Descending Houston Center
Tue 06:57:46 PM 29.6911 -95.2961 231° Southwest 205 236 6,300 -1,377 Descending Houston Center
Tue 06:58:26 PM 29.6625 -95.3314 227° Southwest 194 223 5,200 -1,452 Descending Houston Center
Tue 06:58:48 PM 29.6539 -95.3411 224° Southwest 198 228 4,800 -1,059 Descending Houston Center
Tue 06:59:34 PM 29.6517 -95.3978 267° West 203 234 4,000 -774 Descending Houston Center
Tue 06:59:50 PM 29.6519 -95.4031 273° West 200 230 4,000 -536 Level Houston Center
Tue 07:00:30 PM 29.6792 -95.4450 307° West 199 229 3,500 -774 Descending Houston Center
Tue 07:00:52 PM 29.6939 -95.4603 318° Northwest 200 230 3,200 -764 Descending Houston Center
Tue 07:01:25 PM 29.7217 -95.4519 15° North 206 237 2,800 -774 Descending Houston Center
Tue 07:01:54 PM 29.7381 -95.4322 46° Northeast 202 232 2,400 -716 Descending Houston Center
Tue 07:02:32 PM 29.7394 -95.3944 88° East 184 212 2,000 -387 Descending Houston Center
Tue 07:02:56 PM 29.7311 -95.3811 126° Southeast 193 222 2,000 -358 Level Houston Center
Tue 07:03:39 PM 29.7039 -95.3481 133° Southeast 177 204 1,600 -581 Descending Houston Center
Tue 07:03:58 PM 29.6978 -95.3417 138° Southeast 182 209 1,400 -737 Descending Houston Center
Tue 07:04:36 PM 29.6781 -95.3200 136° Southeast 121 139 900 -677 Descending Houston Center
Tue 07:05:00 PM 29.6717 -95.3097 126° Southeast 160 184 700 -500 Descending Houston Center

Login

Don't have an account? Register now (free) for customized features, flight alerts, and more!